Station STXA2 - Sitka AML, AK Image indicating link to RSS feed of recent meteorological observations for station STXA2


Conditions at STXA2 as of
(12:22 am AKDT)
0822 GMT on 05/22/2024:
     

Click on the graph icon in the table below to see a time series plot of the last five days of that observation.

5-day plot - Wind Direction Wind Direction (WDIR): E ( 100 deg true )
5-day plot - Wind Speed Wind Speed (WSPD): 1 kts
5-day plot - Wind Gust Wind Gust (GST): 3 kts
5-day plot - Air Temperature Air Temperature (ATMP): 43.3 °F
5-day plot - Dew Point Dew Point (DEWP): 40.1 °F
5-day plot - Wind Speed at 10 Meters Wind Speed at 10 meters (WSPD10M): 2 kts
5-day plot - Wind Speed at 20 Meters Wind Speed at 20 meters (WSPD20M): 2 kts
5-day plot -  Wind Speed, Wind Gust and Atmospheric Pressure Combined plot of Wind Speed, Gust, and Air Pressure
Previous observations
TIME
(AKDT)
5-day plot - Wind Direction
WDIR
 
5-day plot - Wind Speed
WSPD
kts
5-day plot - Wind Gust
GST
kts
5-day plot - Wave Height
WVHT
ft
5-day plot - Dominant Wave Period
DPD
sec
5-day plot - Average Wave Period
APD
sec
5-day plot - Mean Wave Direction
MWD
 
5-day plot - Atmospheric Pressure
PRES
in
5-day plot - Pressure Tendency
PTDY
in
5-day plot - Air Temperature
ATMP
°F
5-day plot - Water Temperature
WTMP
°F
5-day plot - Dew Point
DEWP
°F
5-day plot - Salinity
SAL
psu
5-day plot - Visibility
VIS
nmi
5-day plot - Tide (above MLLW)
TIDE
ft
2024-05-22 12:13 amESE 2 3------ 43.5- 40.3---
2024-05-22 12:03 am- 0 3------ 43.7- 40.5---
2024-05-21 11:53 pm E 1 3------ 43.9- 40.5---
2024-05-21 11:43 pm E 2 4------ 43.9- 40.5---
2024-05-21 11:33 pm E 2 3------ 44.1- 40.5---
2024-05-21 11:22 pm E 2 3------ 44.1- 40.5---
2024-05-21 11:12 pm- 0 2------ 44.4- 40.5---
2024-05-21 11:02 pm E 1 3------ 44.6- 40.6---
2024-05-21 10:52 pm E 1 3------ 44.8- 40.6---
2024-05-21 10:43 pmESE 1 3------ 45.1- 40.6---
2024-05-21 10:32 pmESE 2 4------ 45.3- 40.6---
2024-05-21 10:22 pmENE 2 4------ 45.3- 40.8---
2024-05-21 10:12 pmESE 2 5------ 45.5- 40.8---
2024-05-21 10:03 pmESE 2 4------ 46.0- 40.8---
2024-05-21 09:52 pmSSE 1 3------ 46.4- 41.2---
2024-05-21 09:42 pm NE 1 4------ 47.1- 41.5---
2024-05-21 09:33 pm NE 2 6------ 47.5- 41.5---
2024-05-21 09:22 pm E 2 4------ 48.0- 41.9---
2024-05-21 09:12 pm W 1 5------ 48.6- 42.1---
2024-05-21 09:02 pm W 4 8------ 48.4- 42.1---
2024-05-21 08:52 pm W 8 12------ 48.4- 41.9---
2024-05-21 08:43 pm W 10 13------ 49.1- 42.4---
2024-05-21 08:33 pm W 7 11------ 50.5- 42.4---
2024-05-21 08:23 pm W 4 8------ 52.0- 43.3---
2024-05-21 08:12 pmWNW 3 5------ 52.2- 43.7---
2024-05-21 08:03 pm NW 2 6------ 52.7- 43.3---
2024-05-21 07:52 pmWNW 2 5------ 52.3- 43.3---
2024-05-21 07:42 pm W 4 6------ 52.0- 43.0---
2024-05-21 07:33 pm W 5 7------ 51.8- 42.6---
2024-05-21 07:22 pm W 5 8------ 51.6- 42.4---
2024-05-21 07:13 pm NW 4 10------ 52.2- 42.1---
2024-05-21 07:02 pmNNW 2 8------ 53.2- 42.3---
2024-05-21 06:52 pmNNW 3 11------ 52.9- 42.3---
2024-05-21 06:42 pm NW 3 9------ 52.7- 42.6---
2024-05-21 06:32 pm SW 3 13------ 52.7- 43.2---
2024-05-21 06:22 pmNNW 3 11------ 52.9- 43.5---
2024-05-21 06:12 pmWSW 3 9------ 53.1- 43.7---
2024-05-21 06:03 pmSSW 3 11------ 52.7- 43.5---
2024-05-21 05:53 pmWSW 4 12------ 52.9- 43.9---
2024-05-21 05:43 pmSSW 3 8------ 53.1- 44.2---
2024-05-21 05:33 pm SW 4 9------ 52.5- 44.1---
2024-05-21 05:23 pmWSW 4 10------ 52.5- 43.9---
2024-05-21 05:13 pmSSW 4 13------ 52.3- 44.1---
2024-05-21 05:03 pm SW 5 15------ 52.2- 43.9---
2024-05-21 04:52 pm SW 5 14------ 52.3- 43.5---
2024-05-21 04:42 pm SW 5 13------ 52.3- 43.7---
2024-05-21 04:32 pm SW 5 17------ 52.3- 43.9---
2024-05-21 04:22 pmSSW 4 12------ 53.4- 43.9---
2024-05-21 04:13 pm W 4 12------ 53.4- 43.9---
2024-05-21 03:52 pmNNW 3 9------ 54.0- 42.1---
2024-05-21 03:43 pm NW 3 10------ 53.4- 42.3---
2024-05-21 03:33 pmNNW 5 13------ 53.4- 41.9---
2024-05-21 03:23 pmWNW 3 8------ 53.6- 42.6---
2024-05-21 03:12 pmNNW 3 9------ 52.9- 42.3---
2024-05-21 03:02 pm NW 4 10------ 52.5- 41.7---
2024-05-21 02:52 pm NW 6 11------ 51.8- 41.2---
2024-05-21 02:43 pm NW 6 14------ 51.8- 41.2---
2024-05-21 02:33 pm NW 5 11------ 51.6- 41.5---
2024-05-21 02:22 pm NW 5 12------ 51.3- 41.4---
2024-05-21 02:12 pm NW 7 12------ 50.9- 41.4---
2024-05-21 02:03 pm NW 7 13------ 50.5- 41.0---
2024-05-21 01:52 pm NW 7 12------ 50.7- 40.8---
2024-05-21 01:42 pm NW 7 12------ 50.7- 40.6---
2024-05-21 01:32 pm NW 7 14------ 50.7- 40.3---
2024-05-21 01:23 pm NW 7 17------ 50.9- 40.1---
2024-05-21 01:12 pm NW 7 15------ 50.9- 40.3---
2024-05-21 01:03 pm NW 7 14------ 50.7- 40.5---
2024-05-21 12:53 pm NW 6 13------ 51.3- 40.8---
2024-05-21 12:43 pm NW 4 12------ 51.4- 40.8---
2024-05-21 12:33 pm NW 4 8------ 51.1- 40.5---
2024-05-21 12:22 pm NW 2 5------ 51.1- 40.6---
2024-05-21 12:12 pm W 3 6------ 50.5- 40.3---
2024-05-21 12:03 pm W 2 6------ 50.2- 40.3---
2024-05-21 11:53 amWNW 4 8------ 49.6- 40.1---
2024-05-21 11:43 amWNW 3 7------ 49.6- 40.3---
2024-05-21 11:33 am NW 3 5------ 49.3- 40.1---
2024-05-21 11:23 amWNW 2 4------ 49.5- 40.1---
2024-05-21 11:13 am W 2 4------ 49.1- 40.3---
2024-05-21 11:02 am W 2 4------ 48.9- 40.1---
2024-05-21 10:52 am W 2 3------ 48.2- 39.9---
2024-05-21 10:42 am NW 2 2------ 48.0- 39.6---
2024-05-21 10:32 am NW 1 2------ 47.3- 39.6---
2024-05-21 10:22 amWNW 2 4------ 46.0- 39.0---
2024-05-21 10:12 amNNW 3 5------ 46.4- 38.8---
2024-05-21 10:02 amNNW 3 5------ 46.0- 38.7---
2024-05-21 09:52 am NW 2 3------ 45.7- 38.8---
2024-05-21 09:43 am NW 2 3------ 45.9- 39.4---
2024-05-21 09:32 amNNW 1 3------ 45.5- 39.2---
2024-05-21 09:22 am W 2 3------ 45.1- 39.0---
2024-05-21 09:12 amNNW 1 3------ 46.2- 39.9---
2024-05-21 09:03 am N 1 3------ 44.2- 39.2---
2024-05-21 08:53 am NW 1 2------ 43.3- 38.5---
2024-05-21 08:43 amNNW 1 2------ 43.2- 38.7---
2024-05-21 08:33 amNNW 1 2------ 42.4- 39.0---
2024-05-21 08:23 amNNW 1 2------ 41.5- 38.5---
2024-05-21 08:12 amNNW 1 2------ 41.2- 38.8---
2024-05-21 08:02 am- 0 2------ 40.8- 38.5---
2024-05-21 07:52 amNNE 1 2------ 40.5- 38.1---
2024-05-21 07:42 am N 1 3------ 40.1- 37.9---
2024-05-21 07:33 am- 0 2------ 39.7- 37.6---
2024-05-21 07:22 amNNW 2 3------ 39.2- 37.0---
2024-05-21 07:12 amWNW 1 3------ 39.0- 37.2---
2024-05-21 07:02 amNNE 2 3------ 38.5- 37.0---
2024-05-21 06:52 amNNE 2 4------ 37.9- 36.7---
2024-05-21 06:42 am E 2 3------ 37.9- 36.5---
2024-05-21 06:32 amSSE 2 3------ 37.6- 36.0---
2024-05-21 06:22 am- 0 2------ 37.4- 35.8---
2024-05-21 06:12 am NE 1 3------ 37.2- 35.6---
2024-05-21 06:03 am- 0 2------ 37.2- 35.6---
2024-05-21 05:53 amESE 2 3------ 37.2- 35.6---
2024-05-21 05:43 am SE 1 2------ 37.0- 35.4---
2024-05-21 05:33 amESE 1 3------ 37.0- 35.4---
2024-05-21 05:23 am E 1 3------ 37.0- 35.4---
2024-05-21 05:13 am E 2 5------ 37.2- 35.6---
2024-05-21 05:02 amESE 2 4------ 36.9- 35.2---
2024-05-21 04:52 amESE 2 4------ 37.0- 35.4---
2024-05-21 04:43 am E 1 3------ 37.2- 35.6---
2024-05-21 04:32 amESE 2 4------ 37.2- 35.6---
2024-05-21 04:22 am E 2 4------ 37.2- 35.6---
2024-05-21 04:13 am E 2 4------ 37.2- 35.6---
2024-05-21 04:02 am- 0 3------ 37.4- 35.8---
2024-05-21 03:52 am E 1 4------ 37.6- 36.0---
2024-05-21 03:43 amESE 2 4------ 37.8- 36.1---
2024-05-21 03:32 am E 1 3------ 37.8- 36.1---
2024-05-21 03:22 am E 2 4------ 37.8- 36.1---
2024-05-21 03:12 am E 2 5------ 37.8- 36.1---
2024-05-21 03:02 amESE 1 3------ 38.3- 36.7---
2024-05-21 02:52 am E 2 5------ 38.5- 36.9---
2024-05-21 02:42 am E 2 5------ 38.7- 37.0---
2024-05-21 02:32 am E 1 3------ 39.0- 37.2---
2024-05-21 02:22 am- 0 2------ 39.2- 37.6---
2024-05-21 02:12 am E 2 4------ 39.4- 37.8---
2024-05-21 02:02 amESE 2 4------ 39.6- 37.9---
2024-05-21 01:52 am E 2 3------ 40.1- 38.3---
2024-05-21 01:42 am- 0 3------ 40.5- 38.7---
2024-05-21 01:22 amESE 1 3------ 40.8- 39.0---
2024-05-21 01:12 amENE 2 4------ 41.0- 39.0---
2024-05-21 01:02 am E 2 3------ 41.0- 39.2---
2024-05-21 12:52 am- 0 2------ 41.2- 39.4---
2024-05-21 12:42 amENE 1 4------ 41.0- 39.2---
2024-05-21 12:23 am E 1 2------ 41.0- 39.2---
2024-05-21 12:13 am NE 2 4------ 40.8- 39.0---
2024-05-21 12:03 am E 2 5------ 40.8- 39.0---
2024-05-20 11:53 pm E 1 3------ 41.0- 39.0---